Zeus — WDC2598 — position and weather

sailwx.info

Track history (hours):
 
Tides and Currents Weather Stations Pressure Air Temp Water Temp Dewpoint Dewpoint Depression Visibility Wind Speed Wind Dir Waves Ship Positions

Zeus

Owner: Kirby Inland Marine, LP, Houston, TX. More information available from US FCC via Universal Licensing System and Coast Guard Vessel Documentation Center.

Last reported at 2017-Sep-16 09:01 UTC. Time now 2017-Sep-24 10:41 UTC.
Position N 32°40' W 091°08'.
Warning: this ship's position is 8 days out of date.

Length 202 m; draft 3 m.

Type: . MMSI: 366995430.

Date/timePositionNaut miles runAvg speedWind from/ knotsBaromVisibWave heightAir tempDewpointWater temp
2017-Sep-16 09:01N 32°40' W 091°08'2 4.6
2017-Sep-16 08:32N 32°38' W 091°09'0 5.2
2017-Sep-16 08:30N 32°38' W 091°09'1 2.7
2017-Sep-16 08:00N 32°36' W 091°09'3 5.2
2017-Sep-16 07:30N 32°34' W 091°07'2 4.9
2017-Sep-16 07:00N 32°32' W 091°06'3 6.3
2017-Sep-16 06:30N 32°29' W 091°07'2 4.6
2017-Sep-16 06:00N 32°27' W 091°05'2 4.4
2017-Sep-16 05:30N 32°26' W 091°03'3 5.9
2017-Sep-16 05:00N 32°25' W 090°60'3 5.5
2017-Sep-16 04:30N 32°22' W 091°00'2 5.0
2017-Sep-16 04:00N 32°21' W 090°58'3 6.0
2017-Sep-16 03:30N 32°20' W 090°54'3 5.9
2017-Sep-16 03:00N 32°18' W 090°56'3 5.7
2017-Sep-16 02:30N 32°16' W 090°58'3 5.6
2017-Sep-16 02:00N 32°13' W 090°59'3 6.1
2017-Sep-16 01:30N 32°10' W 091°00'3 5.0
2017-Sep-16 01:00N 32°08' W 091°01'3 5.3
2017-Sep-16 00:31N 32°08' W 091°04'2 4.3
2017-Sep-16 00:01N 32°07' W 091°06'4 5.8
2017-Sep-15 23:17N 32°03' W 091°03'2 4.7
2017-Sep-15 22:57N 32°02' W 091°04'0 0.8
2017-Sep-15 22:28N 32°02' W 091°04'  
2017-Sep-12 12:58N 29°56' W 090°21'129 3.9
2017-Sep-11 03:57N 31°57' W 091°11'5 9.6
2017-Sep-11 03:25N 31°59' W 091°06'410.4
2017-Sep-11 03:00N 32°03' W 091°03'510.0
2017-Sep-11 02:30N 32°07' W 091°07'5 9.5
2017-Sep-11 02:00N 32°08' W 091°01'510.5
2017-Sep-11 01:30N 32°13' W 090°59'510.7
2017-Sep-11 01:00N 32°17' W 090°56'4 7.1
2017-Sep-11 00:30N 32°21' W 090°55'5 9.4
2017-Sep-11 00:00N 32°22' W 091°00'4 8.6
2017-Sep-10 23:30N 32°26' W 091°02'510.0
2017-Sep-10 23:00N 32°29' W 091°07'510.1
2017-Sep-10 22:30N 32°34' W 091°06'6 9.2
2017-Sep-10 21:50N 32°40' W 091°08'  
2017-Sep-08 04:56N 38°51' W 090°06'3 2.5
2017-Sep-08 03:45N 38°52' W 090°09'1 3.2
2017-Sep-08 03:30N 38°53' W 090°10'2 3.7
2017-Sep-08 03:01N 38°54' W 090°12'1 1.7
2017-Sep-08 02:30N 38°54' W 090°13'0 0.1
2017-Sep-08 02:00N 38°54' W 090°13'0 0.1
2017-Sep-08 01:31N 38°54' W 090°13'0 0.0
2017-Sep-08 00:20N 38°54' W 090°13'2 1.5
2017-Sep-07 22:57N 38°55' W 090°15'3 7.7
2017-Sep-07 22:30N 38°56' W 090°20'4 7.9
2017-Sep-07 22:00N 38°58' W 090°24'3 6.7
2017-Sep-07 21:30N 38°58' W 090°28'3 5.3
2017-Sep-07 21:01N 38°57' W 090°32'  
Track history (hours):
 
Tides and Currents Weather Stations Pressure Air Temp Water Temp Dewpoint Dewpoint Depression Visibility Wind Speed Wind Dir Waves Ship Positions

Zeus

Owner: Kirby Inland Marine, LP, Houston, TX. More information available from US FCC via Universal Licensing System and Coast Guard Vessel Documentation Center.

Last reported at 2017-Sep-16 09:01 UTC. Time now 2017-Sep-24 10:41 UTC.
Position N 32°40' W 091°08'.
Warning: this ship's position is 8 days out of date.

Length 202 m; draft 3 m.

Type: . MMSI: 366995430.

Date/timePositionNaut miles runAvg speedWind from/ knotsBaromVisibWave heightAir tempDewpointWater temp
2017-Sep-16 09:01N 32°40' W 091°08'2 4.6
2017-Sep-16 08:32N 32°38' W 091°09'0 5.2
2017-Sep-16 08:30N 32°38' W 091°09'1 2.7
2017-Sep-16 08:00N 32°36' W 091°09'3 5.2
2017-Sep-16 07:30N 32°34' W 091°07'2 4.9
2017-Sep-16 07:00N 32°32' W 091°06'3 6.3
2017-Sep-16 06:30N 32°29' W 091°07'2 4.6
2017-Sep-16 06:00N 32°27' W 091°05'2 4.4
2017-Sep-16 05:30N 32°26' W 091°03'3 5.9
2017-Sep-16 05:00N 32°25' W 090°60'3 5.5
2017-Sep-16 04:30N 32°22' W 091°00'2 5.0
2017-Sep-16 04:00N 32°21' W 090°58'3 6.0
2017-Sep-16 03:30N 32°20' W 090°54'3 5.9
2017-Sep-16 03:00N 32°18' W 090°56'3 5.7
2017-Sep-16 02:30N 32°16' W 090°58'3 5.6
2017-Sep-16 02:00N 32°13' W 090°59'3 6.1
2017-Sep-16 01:30N 32°10' W 091°00'3 5.0
2017-Sep-16 01:00N 32°08' W 091°01'3 5.3
2017-Sep-16 00:31N 32°08' W 091°04'2 4.3
2017-Sep-16 00:01N 32°07' W 091°06'4 5.8
2017-Sep-15 23:17N 32°03' W 091°03'2 4.7
2017-Sep-15 22:57N 32°02' W 091°04'0 0.8
2017-Sep-15 22:28N 32°02' W 091°04'  
2017-Sep-12 12:58N 29°56' W 090°21'129 3.9
2017-Sep-11 03:57N 31°57' W 091°11'5 9.6
2017-Sep-11 03:25N 31°59' W 091°06'410.4
2017-Sep-11 03:00N 32°03' W 091°03'510.0
2017-Sep-11 02:30N 32°07' W 091°07'5 9.5
2017-Sep-11 02:00N 32°08' W 091°01'510.5
2017-Sep-11 01:30N 32°13' W 090°59'510.7
2017-Sep-11 01:00N 32°17' W 090°56'4 7.1
2017-Sep-11 00:30N 32°21' W 090°55'5 9.4
2017-Sep-11 00:00N 32°22' W 091°00'4 8.6
2017-Sep-10 23:30N 32°26' W 091°02'510.0
2017-Sep-10 23:00N 32°29' W 091°07'510.1
2017-Sep-10 22:30N 32°34' W 091°06'6 9.2
2017-Sep-10 21:50N 32°40' W 091°08'  
2017-Sep-08 04:56N 38°51' W 090°06'3 2.5
2017-Sep-08 03:45N 38°52' W 090°09'1 3.2
2017-Sep-08 03:30N 38°53' W 090°10'2 3.7
2017-Sep-08 03:01N 38°54' W 090°12'1 1.7
2017-Sep-08 02:30N 38°54' W 090°13'0 0.1
2017-Sep-08 02:00N 38°54' W 090°13'0 0.1
2017-Sep-08 01:31N 38°54' W 090°13'0 0.0
2017-Sep-08 00:20N 38°54' W 090°13'2 1.5
2017-Sep-07 22:57N 38°55' W 090°15'3 7.7
2017-Sep-07 22:30N 38°56' W 090°20'4 7.9
2017-Sep-07 22:00N 38°58' W 090°24'3 6.7
2017-Sep-07 21:30N 38°58' W 090°28'3 5.3
2017-Sep-07 21:01N 38°57' W 090°32'  

Dump ship's entire track history